sensor_id;sensor_type;location;lat;lon;timestamp;temperature;humidity
3648;DHT22;1840;48.892;15.312;2022-12-07T00:01:41;0.20;99.90
3648;DHT22;1840;48.892;15.312;2022-12-07T00:04:12;0.40;99.90
3648;DHT22;1840;48.892;15.312;2022-12-07T00:06:42;0.30;99.90
3648;DHT22;1840;48.892;15.312;2022-12-07T00:09:11;0.50;99.90
3648;DHT22;1840;48.892;15.312;2022-12-07T00:11:43;0.50;99.90
3648;DHT22;1840;48.892;15.312;2022-12-07T00:14:13;0.50;99.90
3648;DHT22;1840;48.892;15.312;2022-12-07T00:16:42;0.50;99.90
3648;DHT22;1840;48.892;15.312;2022-12-07T00:19:13;0.40;99.90
3648;DHT22;1840;48.892;15.312;2022-12-07T00:21:44;0.30;99.90
3648;DHT22;1840;48.892;15.312;2022-12-07T00:24:12;0.40;99.90
3648;DHT22;1840;48.892;15.312;2022-12-07T00:26:41;0.50;99.90
3648;DHT22;1840;48.892;15.312;2022-12-07T00:29:15;0.60;99.90
3648;DHT22;1840;48.892;15.312;2022-12-07T00:31:43;0.50;99.90
3648;DHT22;1840;48.892;15.312;2022-12-07T00:34:16;0.40;99.90
3648;DHT22;1840;48.892;15.312;2022-12-07T00:36:44;0.40;99.90
3648;DHT22;1840;48.892;15.312;2022-12-07T00:39:12;0.50;99.90
3648;DHT22;1840;48.892;15.312;2022-12-07T00:41:41;0.60;99.90
3648;DHT22;1840;48.892;15.312;2022-12-07T00:44:09;0.70;99.90
3648;DHT22;1840;48.892;15.312;2022-12-07T00:46:37;0.70;99.90
3648;DHT22;1840;48.892;15.312;2022-12-07T00:49:05;0.60;99.90
3648;DHT22;1840;48.892;15.312;2022-12-07T00:51:34;0.50;99.90
3648;DHT22;1840;48.892;15.312;2022-12-07T00:54:02;0.50;99.90
3648;DHT22;1840;48.892;15.312;2022-12-07T00:56:30;0.40;99.90
3648;DHT22;1840;48.892;15.312;2022-12-07T00:59:00;0.30;99.90
3648;DHT22;1840;48.892;15.312;2022-12-07T01:01:29;0.30;99.90
3648;DHT22;1840;48.892;15.312;2022-12-07T01:04:00;0.30;99.90
3648;DHT22;1840;48.892;15.312;2022-12-07T01:06:29;0.30;99.90
3648;DHT22;1840;48.892;15.312;2022-12-07T01:08:59;0.30;99.90
3648;DHT22;1840;48.892;15.312;2022-12-07T01:11:29;0.50;99.90
3648;DHT22;1840;48.892;15.312;2022-12-07T01:13:58;0.50;99.90
3648;DHT22;1840;48.892;15.312;2022-12-07T01:16:29;0.50;99.90
3648;DHT22;1840;48.892;15.312;2022-12-07T01:18:58;0.40;99.90
3648;DHT22;1840;48.892;15.312;2022-12-07T01:21:27;0.40;99.90
3648;DHT22;1840;48.892;15.312;2022-12-07T01:23:58;0.40;99.90
3648;DHT22;1840;48.892;15.312;2022-12-07T01:26:27;0.40;99.90
3648;DHT22;1840;48.892;15.312;2022-12-07T01:28:55;0.50;99.90
3648;DHT22;1840;48.892;15.312;2022-12-07T01:31:26;0.50;99.90
3648;DHT22;1840;48.892;15.312;2022-12-07T01:33:56;0.40;99.90
3648;DHT22;1840;48.892;15.312;2022-12-07T01:36:29;0.40;99.90
3648;DHT22;1840;48.892;15.312;2022-12-07T01:39:01;0.30;99.90
3648;DHT22;1840;48.892;15.312;2022-12-07T01:41:30;0.50;99.90
3648;DHT22;1840;48.892;15.312;2022-12-07T01:44:15;0.50;99.90
3648;DHT22;1840;48.892;15.312;2022-12-07T01:46:45;0.40;99.90
3648;DHT22;1840;48.892;15.312;2022-12-07T01:49:17;0.30;99.90
3648;DHT22;1840;48.892;15.312;2022-12-07T01:51:47;0.20;99.90
3648;DHT22;1840;48.892;15.312;2022-12-07T01:54:18;0.30;99.90
3648;DHT22;1840;48.892;15.312;2022-12-07T01:56:50;0.50;99.90
3648;DHT22;1840;48.892;15.312;2022-12-07T01:59:21;0.30;99.90
3648;DHT22;1840;48.892;15.312;2022-12-07T02:01:51;0.40;99.90
3648;DHT22;1840;48.892;15.312;2022-12-07T02:04:21;0.50;99.90
3648;DHT22;1840;48.892;15.312;2022-12-07T02:06:50;0.50;99.90
3648;DHT22;1840;48.892;15.312;2022-12-07T02:09:20;0.50;99.90
3648;DHT22;1840;48.892;15.312;2022-12-07T02:11:48;0.50;99.90
3648;DHT22;1840;48.892;15.312;2022-12-07T02:14:17;0.60;99.90
3648;DHT22;1840;48.892;15.312;2022-12-07T02:16:56;0.50;99.90
3648;DHT22;1840;48.892;15.312;2022-12-07T02:20:15;0.40;99.90
3648;DHT22;1840;48.892;15.312;2022-12-07T02:25:58;0.50;99.90
3648;DHT22;1840;48.892;15.312;2022-12-07T02:28:33;0.50;99.90
3648;DHT22;1840;48.892;15.312;2022-12-07T02:31:07;0.40;99.90
3648;DHT22;1840;48.892;15.312;2022-12-07T02:33:41;0.50;99.90
3648;DHT22;1840;48.892;15.312;2022-12-07T02:36:12;0.60;99.90
3648;DHT22;1840;48.892;15.312;2022-12-07T02:38:45;0.50;99.90
3648;DHT22;1840;48.892;15.312;2022-12-07T02:41:19;0.50;99.90
3648;DHT22;1840;48.892;15.312;2022-12-07T02:43:52;0.60;99.90
3648;DHT22;1840;48.892;15.312;2022-12-07T02:46:25;0.60;99.90
3648;DHT22;1840;48.892;15.312;2022-12-07T02:48:57;0.40;99.90
3648;DHT22;1840;48.892;15.312;2022-12-07T02:51:30;0.40;99.90
3648;DHT22;1840;48.892;15.312;2022-12-07T02:54:02;0.50;99.90
3648;DHT22;1840;48.892;15.312;2022-12-07T02:56:37;0.50;99.90
3648;DHT22;1840;48.892;15.312;2022-12-07T02:59:17;0.60;99.90
3648;DHT22;1840;48.892;15.312;2022-12-07T03:01:55;0.50;99.90
3648;DHT22;1840;48.892;15.312;2022-12-07T03:04:37;0.50;99.90
3648;DHT22;1840;48.892;15.312;2022-12-07T03:07:20;0.60;99.90
3648;DHT22;1840;48.892;15.312;2022-12-07T03:09:53;0.60;99.90
3648;DHT22;1840;48.892;15.312;2022-12-07T03:12:29;0.50;99.90
3648;DHT22;1840;48.892;15.312;2022-12-07T03:15:02;0.50;99.90
3648;DHT22;1840;48.892;15.312;2022-12-07T03:17:35;0.40;99.90
3648;DHT22;1840;48.892;15.312;2022-12-07T03:20:07;0.30;99.90
3648;DHT22;1840;48.892;15.312;2022-12-07T03:22:38;0.50;99.90
3648;DHT22;1840;48.892;15.312;2022-12-07T03:25:11;0.60;99.90
3648;DHT22;1840;48.892;15.312;2022-12-07T03:27:44;0.50;99.90
3648;DHT22;1840;48.892;15.312;2022-12-07T03:30:17;0.50;99.90
3648;DHT22;1840;48.892;15.312;2022-12-07T03:32:52;0.50;99.90
3648;DHT22;1840;48.892;15.312;2022-12-07T03:35:25;0.60;99.90
3648;DHT22;1840;48.892;15.312;2022-12-07T03:37:57;0.60;99.90
3648;DHT22;1840;48.892;15.312;2022-12-07T03:40:30;0.50;99.90
3648;DHT22;1840;48.892;15.312;2022-12-07T03:43:03;0.40;99.90
3648;DHT22;1840;48.892;15.312;2022-12-07T03:45:38;0.40;99.90
3648;DHT22;1840;48.892;15.312;2022-12-07T03:48:17;0.60;99.90
3648;DHT22;1840;48.892;15.312;2022-12-07T03:50:52;0.50;99.90
3648;DHT22;1840;48.892;15.312;2022-12-07T03:53:28;0.40;99.90
3648;DHT22;1840;48.892;15.312;2022-12-07T03:55:59;0.50;99.90
3648;DHT22;1840;48.892;15.312;2022-12-07T03:58:30;0.40;99.90
3648;DHT22;1840;48.892;15.312;2022-12-07T04:00:58;0.50;99.90
3648;DHT22;1840;48.892;15.312;2022-12-07T04:03:27;0.40;99.90
3648;DHT22;1840;48.892;15.312;2022-12-07T04:05:55;0.40;99.90
3648;DHT22;1840;48.892;15.312;2022-12-07T04:08:24;0.40;99.90
3648;DHT22;1840;48.892;15.312;2022-12-07T04:10:52;0.30;99.90
3648;DHT22;1840;48.892;15.312;2022-12-07T04:13:20;0.50;99.90
3648;DHT22;1840;48.892;15.312;2022-12-07T04:15:49;0.40;99.90
3648;DHT22;1840;48.892;15.312;2022-12-07T04:18:18;0.30;99.90
3648;DHT22;1840;48.892;15.312;2022-12-07T04:20:47;0.50;99.90
3648;DHT22;1840;48.892;15.312;2022-12-07T04:23:15;0.50;99.90
3648;DHT22;1840;48.892;15.312;2022-12-07T04:25:43;0.70;99.90
3648;DHT22;1840;48.892;15.312;2022-12-07T04:28:12;0.50;99.90
3648;DHT22;1840;48.892;15.312;2022-12-07T04:30:40;0.40;99.90
3648;DHT22;1840;48.892;15.312;2022-12-07T04:33:08;0.30;99.90
3648;DHT22;1840;48.892;15.312;2022-12-07T04:35:36;0.50;99.90
3648;DHT22;1840;48.892;15.312;2022-12-07T04:38:05;0.50;99.90
3648;DHT22;1840;48.892;15.312;2022-12-07T04:40:35;0.50;99.90
3648;DHT22;1840;48.892;15.312;2022-12-07T04:43:03;0.40;99.90
3648;DHT22;1840;48.892;15.312;2022-12-07T04:45:31;0.50;99.90
3648;DHT22;1840;48.892;15.312;2022-12-07T04:47:59;0.50;99.90
3648;DHT22;1840;48.892;15.312;2022-12-07T04:50:27;0.50;99.90
3648;DHT22;1840;48.892;15.312;2022-12-07T04:52:55;0.60;99.90
3648;DHT22;1840;48.892;15.312;2022-12-07T04:55:24;0.50;99.90
3648;DHT22;1840;48.892;15.312;2022-12-07T04:57:52;0.50;99.90
3648;DHT22;1840;48.892;15.312;2022-12-07T05:00:20;0.40;99.90
3648;DHT22;1840;48.892;15.312;2022-12-07T05:02:48;0.30;99.90
3648;DHT22;1840;48.892;15.312;2022-12-07T05:05:16;0.20;99.90
3648;DHT22;1840;48.892;15.312;2022-12-07T05:07:44;0.30;99.90
3648;DHT22;1840;48.892;15.312;2022-12-07T05:10:12;0.30;99.90
3648;DHT22;1840;48.892;15.312;2022-12-07T05:12:42;0.10;99.90
3648;DHT22;1840;48.892;15.312;2022-12-07T05:15:10;0.20;99.90
3648;DHT22;1840;48.892;15.312;2022-12-07T05:17:38;0.20;99.90
3648;DHT22;1840;48.892;15.312;2022-12-07T05:20:07;0.30;99.90
3648;DHT22;1840;48.892;15.312;2022-12-07T05:22:36;0.30;99.90
3648;DHT22;1840;48.892;15.312;2022-12-07T05:25:04;0.40;99.90
3648;DHT22;1840;48.892;15.312;2022-12-07T05:27:32;0.50;99.90
3648;DHT22;1840;48.892;15.312;2022-12-07T05:30:06;0.50;99.90
3648;DHT22;1840;48.892;15.312;2022-12-07T05:32:34;0.30;99.90
3648;DHT22;1840;48.892;15.312;2022-12-07T05:35:02;0.20;99.90
3648;DHT22;1840;48.892;15.312;2022-12-07T05:37:31;0.30;99.90
3648;DHT22;1840;48.892;15.312;2022-12-07T05:40:01;0.30;99.90
3648;DHT22;1840;48.892;15.312;2022-12-07T05:42:32;0.20;99.90
3648;DHT22;1840;48.892;15.312;2022-12-07T05:45:00;0.30;99.90
3648;DHT22;1840;48.892;15.312;2022-12-07T05:47:30;0.20;99.90
3648;DHT22;1840;48.892;15.312;2022-12-07T05:49:58;0.20;99.90
3648;DHT22;1840;48.892;15.312;2022-12-07T05:52:26;0.40;99.90
3648;DHT22;1840;48.892;15.312;2022-12-07T05:54:54;0.50;99.90
3648;DHT22;1840;48.892;15.312;2022-12-07T05:57:22;0.50;99.90
3648;DHT22;1840;48.892;15.312;2022-12-07T05:59:50;0.30;99.90
3648;DHT22;1840;48.892;15.312;2022-12-07T06:02:17;0.30;99.90
3648;DHT22;1840;48.892;15.312;2022-12-07T06:04:47;0.30;99.90
3648;DHT22;1840;48.892;15.312;2022-12-07T06:07:16;0.30;99.90
3648;DHT22;1840;48.892;15.312;2022-12-07T06:09:44;0.20;99.90
3648;DHT22;1840;48.892;15.312;2022-12-07T06:12:13;0.10;99.90
3648;DHT22;1840;48.892;15.312;2022-12-07T06:14:58;0.20;99.90
3648;DHT22;1840;48.892;15.312;2022-12-07T06:17:26;0.20;99.90
3648;DHT22;1840;48.892;15.312;2022-12-07T06:19:56;0.20;99.90
3648;DHT22;1840;48.892;15.312;2022-12-07T06:22:24;0.20;99.90
3648;DHT22;1840;48.892;15.312;2022-12-07T06:24:52;0.40;99.90
3648;DHT22;1840;48.892;15.312;2022-12-07T06:27:21;0.50;99.90
3648;DHT22;1840;48.892;15.312;2022-12-07T06:29:49;0.60;99.90
3648;DHT22;1840;48.892;15.312;2022-12-07T06:32:16;0.60;99.90
3648;DHT22;1840;48.892;15.312;2022-12-07T06:34:45;0.60;99.90
3648;DHT22;1840;48.892;15.312;2022-12-07T06:37:15;0.30;99.90
3648;DHT22;1840;48.892;15.312;2022-12-07T06:39:43;0.30;99.90
3648;DHT22;1840;48.892;15.312;2022-12-07T06:42:12;0.40;99.90
3648;DHT22;1840;48.892;15.312;2022-12-07T06:44:40;0.50;99.90
3648;DHT22;1840;48.892;15.312;2022-12-07T06:47:11;0.20;99.90
3648;DHT22;1840;48.892;15.312;2022-12-07T06:49:59;0.20;99.90
3648;DHT22;1840;48.892;15.312;2022-12-07T06:52:35;0.00;99.90
3648;DHT22;1840;48.892;15.312;2022-12-07T06:55:04;0.00;99.90
3648;DHT22;1840;48.892;15.312;2022-12-07T06:57:32;0.00;99.90
3648;DHT22;1840;48.892;15.312;2022-12-07T07:00:00;0.10;99.90
3648;DHT22;1840;48.892;15.312;2022-12-07T07:02:29;0.00;99.90
3648;DHT22;1840;48.892;15.312;2022-12-07T07:04:57;0.30;99.90
3648;DHT22;1840;48.892;15.312;2022-12-07T07:07:25;0.20;99.90
3648;DHT22;1840;48.892;15.312;2022-12-07T07:09:54;0.10;99.90
3648;DHT22;1840;48.892;15.312;2022-12-07T07:12:22;0.20;99.90
3648;DHT22;1840;48.892;15.312;2022-12-07T07:14:50;0.00;99.90
3648;DHT22;1840;48.892;15.312;2022-12-07T07:17:18;0.20;99.90
3648;DHT22;1840;48.892;15.312;2022-12-07T07:19:47;0.20;99.90
3648;DHT22;1840;48.892;15.312;2022-12-07T07:22:15;0.10;99.90
3648;DHT22;1840;48.892;15.312;2022-12-07T07:24:46;0.10;99.90
3648;DHT22;1840;48.892;15.312;2022-12-07T07:27:16;0.00;99.90
3648;DHT22;1840;48.892;15.312;2022-12-07T07:29:44;0.30;99.90
3648;DHT22;1840;48.892;15.312;2022-12-07T07:32:12;0.30;99.90
3648;DHT22;1840;48.892;15.312;2022-12-07T07:34:40;0.30;99.90
3648;DHT22;1840;48.892;15.312;2022-12-07T07:37:08;0.30;99.90
3648;DHT22;1840;48.892;15.312;2022-12-07T07:39:37;0.30;99.90
3648;DHT22;1840;48.892;15.312;2022-12-07T07:42:06;0.30;99.90
3648;DHT22;1840;48.892;15.312;2022-12-07T07:44:36;0.40;99.90
3648;DHT22;1840;48.892;15.312;2022-12-07T07:47:04;0.30;99.90
3648;DHT22;1840;48.892;15.312;2022-12-07T07:49:32;0.30;99.90
3648;DHT22;1840;48.892;15.312;2022-12-07T07:52:00;0.40;99.90
3648;DHT22;1840;48.892;15.312;2022-12-07T07:54:28;0.30;99.90
3648;DHT22;1840;48.892;15.312;2022-12-07T07:56:56;0.20;99.90
3648;DHT22;1840;48.892;15.312;2022-12-07T07:59:24;-0.10;99.90
3648;DHT22;1840;48.892;15.312;2022-12-07T08:01:55;0.00;99.90
3648;DHT22;1840;48.892;15.312;2022-12-07T08:04:23;0.00;99.90
3648;DHT22;1840;48.892;15.312;2022-12-07T08:06:51;0.10;99.90
3648;DHT22;1840;48.892;15.312;2022-12-07T08:09:19;0.10;99.90
3648;DHT22;1840;48.892;15.312;2022-12-07T08:11:50;0.20;99.90
3648;DHT22;1840;48.892;15.312;2022-12-07T08:14:18;0.20;99.90
3648;DHT22;1840;48.892;15.312;2022-12-07T08:16:46;0.20;99.90
3648;DHT22;1840;48.892;15.312;2022-12-07T08:19:15;0.50;99.90
3648;DHT22;1840;48.892;15.312;2022-12-07T08:21:43;0.30;99.90
3648;DHT22;1840;48.892;15.312;2022-12-07T08:24:11;0.40;99.90
3648;DHT22;1840;48.892;15.312;2022-12-07T08:26:40;0.70;99.90
3648;DHT22;1840;48.892;15.312;2022-12-07T08:29:09;0.80;99.90
3648;DHT22;1840;48.892;15.312;2022-12-07T08:31:36;1.00;99.90
3648;DHT22;1840;48.892;15.312;2022-12-07T08:34:05;0.60;99.90
3648;DHT22;1840;48.892;15.312;2022-12-07T08:36:36;0.60;99.90
3648;DHT22;1840;48.892;15.312;2022-12-07T08:39:04;0.60;99.90
3648;DHT22;1840;48.892;15.312;2022-12-07T08:41:52;0.70;99.60
3648;DHT22;1840;48.892;15.312;2022-12-07T08:44:20;0.50;99.60
3648;DHT22;1840;48.892;15.312;2022-12-07T08:46:52;0.60;99.90
3648;DHT22;1840;48.892;15.312;2022-12-07T08:49:25;0.70;99.60
3648;DHT22;1840;48.892;15.312;2022-12-07T08:51:56;0.70;99.50
3648;DHT22;1840;48.892;15.312;2022-12-07T08:54:24;0.40;99.60
3648;DHT22;1840;48.892;15.312;2022-12-07T08:56:54;0.20;99.70
3648;DHT22;1840;48.892;15.312;2022-12-07T08:59:26;0.70;99.90
3648;DHT22;1840;48.892;15.312;2022-12-07T09:01:55;0.60;99.90
3648;DHT22;1840;48.892;15.312;2022-12-07T09:04:23;1.00;99.50
3648;DHT22;1840;48.892;15.312;2022-12-07T09:06:52;1.40;98.90
3648;DHT22;1840;48.892;15.312;2022-12-07T09:09:23;1.80;99.90
3648;DHT22;1840;48.892;15.312;2022-12-07T09:11:51;2.40;99.20
3648;DHT22;1840;48.892;15.312;2022-12-07T09:14:19;2.50;98.10
3648;DHT22;1840;48.892;15.312;2022-12-07T09:16:47;2.30;97.50
3648;DHT22;1840;48.892;15.312;2022-12-07T09:19:15;2.60;98.20
3648;DHT22;1840;48.892;15.312;2022-12-07T09:21:45;2.60;97.40
3648;DHT22;1840;48.892;15.312;2022-12-07T09:24:13;2.30;97.50
3648;DHT22;1840;48.892;15.312;2022-12-07T09:26:44;2.10;97.30
3648;DHT22;1840;48.892;15.312;2022-12-07T09:29:12;1.90;97.40
3648;DHT22;1840;48.892;15.312;2022-12-07T09:31:40;1.20;97.80
3648;DHT22;1840;48.892;15.312;2022-12-07T09:34:08;0.90;98.60
3648;DHT22;1840;48.892;15.312;2022-12-07T09:36:37;0.80;99.10
3648;DHT22;1840;48.892;15.312;2022-12-07T09:39:05;0.80;99.00
3648;DHT22;1840;48.892;15.312;2022-12-07T09:41:33;0.20;99.30
3648;DHT22;1840;48.892;15.312;2022-12-07T09:44:05;0.20;99.50
3648;DHT22;1840;48.892;15.312;2022-12-07T09:46:36;-0.10;99.80
3648;DHT22;1840;48.892;15.312;2022-12-07T09:49:11;0.00;99.90
3648;DHT22;1840;48.892;15.312;2022-12-07T09:51:40;0.10;99.90
3648;DHT22;1840;48.892;15.312;2022-12-07T09:54:12;0.50;99.90
3648;DHT22;1840;48.892;15.312;2022-12-07T09:56:41;0.40;99.90
3648;DHT22;1840;48.892;15.312;2022-12-07T09:59:16;0.50;99.80
3648;DHT22;1840;48.892;15.312;2022-12-07T10:01:48;0.80;99.40
3648;DHT22;1840;48.892;15.312;2022-12-07T10:04:18;0.90;99.20
3648;DHT22;1840;48.892;15.312;2022-12-07T10:06:48;0.90;99.30
3648;DHT22;1840;48.892;15.312;2022-12-07T10:09:21;0.90;99.50
3648;DHT22;1840;48.892;15.312;2022-12-07T10:12:05;1.00;99.20
3648;DHT22;1840;48.892;15.312;2022-12-07T10:14:38;0.60;99.20
3648;DHT22;1840;48.892;15.312;2022-12-07T10:17:35;0.80;99.20
3648;DHT22;1840;48.892;15.312;2022-12-07T10:20:20;1.00;99.00
3648;DHT22;1840;48.892;15.312;2022-12-07T10:23:00;1.00;98.70
3648;DHT22;1840;48.892;15.312;2022-12-07T10:25:31;0.80;98.60
3648;DHT22;1840;48.892;15.312;2022-12-07T10:28:02;0.80;98.90
3648;DHT22;1840;48.892;15.312;2022-12-07T10:30:54;0.90;99.00
3648;DHT22;1840;48.892;15.312;2022-12-07T10:33:34;0.80;98.70
3648;DHT22;1840;48.892;15.312;2022-12-07T10:36:20;0.90;98.80
3648;DHT22;1840;48.892;15.312;2022-12-07T10:38:51;0.90;98.90
3648;DHT22;1840;48.892;15.312;2022-12-07T10:41:19;0.70;98.90
3648;DHT22;1840;48.892;15.312;2022-12-07T10:43:52;0.50;99.10
3648;DHT22;1840;48.892;15.312;2022-12-07T10:46:45;0.60;99.20
3648;DHT22;1840;48.892;15.312;2022-12-07T10:52:33;0.70;98.50
3648;DHT22;1840;48.892;15.312;2022-12-07T10:55:15;0.60;98.80
3648;DHT22;1840;48.892;15.312;2022-12-07T10:58:07;0.80;98.80
3648;DHT22;1840;48.892;15.312;2022-12-07T11:00:44;0.60;99.00
3648;DHT22;1840;48.892;15.312;2022-12-07T11:03:35;0.20;99.10
3648;DHT22;1840;48.892;15.312;2022-12-07T11:06:14;0.00;99.40
3648;DHT22;1840;48.892;15.312;2022-12-07T11:09:11;0.00;99.80
3648;DHT22;1840;48.892;15.312;2022-12-07T11:12:11;0.30;99.90
3648;DHT22;1840;48.892;15.312;2022-12-07T11:14:49;0.60;99.30
3648;DHT22;1840;48.892;15.312;2022-12-07T11:17:28;0.80;98.60
3648;DHT22;1840;48.892;15.312;2022-12-07T11:20:05;0.70;98.70
3648;DHT22;1840;48.892;15.312;2022-12-07T11:22:45;0.60;98.80
3648;DHT22;1840;48.892;15.312;2022-12-07T11:25:24;0.40;99.00
3648;DHT22;1840;48.892;15.312;2022-12-07T11:28:13;0.50;99.00
3648;DHT22;1840;48.892;15.312;2022-12-07T11:30:50;0.50;99.00
3648;DHT22;1840;48.892;15.312;2022-12-07T11:33:27;0.80;99.30
3648;DHT22;1840;48.892;15.312;2022-12-07T11:36:04;0.80;98.70
3648;DHT22;1840;48.892;15.312;2022-12-07T11:38:41;0.90;99.10
3648;DHT22;1840;48.892;15.312;2022-12-07T11:41:10;0.80;98.30
3648;DHT22;1840;48.892;15.312;2022-12-07T11:43:51;0.50;99.20
3648;DHT22;1840;48.892;15.312;2022-12-07T11:46:24;0.80;99.20
3648;DHT22;1840;48.892;15.312;2022-12-07T11:48:58;0.80;99.20
3648;DHT22;1840;48.892;15.312;2022-12-07T11:51:34;1.20;98.90
3648;DHT22;1840;48.892;15.312;2022-12-07T11:54:09;1.40;98.70
3648;DHT22;1840;48.892;15.312;2022-12-07T11:56:38;1.50;98.40
3648;DHT22;1840;48.892;15.312;2022-12-07T11:59:12;1.20;98.60
3648;DHT22;1840;48.892;15.312;2022-12-07T12:01:50;1.10;98.40
3648;DHT22;1840;48.892;15.312;2022-12-07T12:04:29;1.30;98.50
3648;DHT22;1840;48.892;15.312;2022-12-07T12:07:01;1.20;98.40
3648;DHT22;1840;48.892;15.312;2022-12-07T12:09:53;1.00;98.50
3648;DHT22;1840;48.892;15.312;2022-12-07T12:12:50;0.80;98.70
3648;DHT22;1840;48.892;15.312;2022-12-07T12:15:57;1.00;99.10
3648;DHT22;1840;48.892;15.312;2022-12-07T12:18:39;0.90;98.80
3648;DHT22;1840;48.892;15.312;2022-12-07T12:21:13;1.10;98.70
3648;DHT22;1840;48.892;15.312;2022-12-07T12:23:50;1.00;98.50
3648;DHT22;1840;48.892;15.312;2022-12-07T12:26:24;1.00;98.80
3648;DHT22;1840;48.892;15.312;2022-12-07T12:28:56;0.90;99.10
3648;DHT22;1840;48.892;15.312;2022-12-07T12:31:33;1.00;98.70
3648;DHT22;1840;48.892;15.312;2022-12-07T12:34:10;1.00;98.70
3648;DHT22;1840;48.892;15.312;2022-12-07T12:36:54;0.80;98.90
3648;DHT22;1840;48.892;15.312;2022-12-07T12:39:22;0.70;98.60
3648;DHT22;1840;48.892;15.312;2022-12-07T12:41:57;0.40;99.20
3648;DHT22;1840;48.892;15.312;2022-12-07T12:47:53;0.80;99.30
3648;DHT22;1840;48.892;15.312;2022-12-07T12:50:23;0.80;98.70
3648;DHT22;1840;48.892;15.312;2022-12-07T12:53:05;0.20;99.50
3648;DHT22;1840;48.892;15.312;2022-12-07T12:56:01;0.30;99.60
3648;DHT22;1840;48.892;15.312;2022-12-07T12:58:42;0.60;99.40
3648;DHT22;1840;48.892;15.312;2022-12-07T13:01:46;0.70;99.00
3648;DHT22;1840;48.892;15.312;2022-12-07T13:07:51;0.60;99.20
3648;DHT22;1840;48.892;15.312;2022-12-07T13:10:41;0.70;99.00
3648;DHT22;1840;48.892;15.312;2022-12-07T13:13:34;0.60;99.10
3648;DHT22;1840;48.892;15.312;2022-12-07T13:16:38;0.40;99.30
3648;DHT22;1840;48.892;15.312;2022-12-07T13:22:43;0.60;99.60
3648;DHT22;1840;48.892;15.312;2022-12-07T13:25:18;0.60;99.60
3648;DHT22;1840;48.892;15.312;2022-12-07T13:27:54;0.80;99.30
3648;DHT22;1840;48.892;15.312;2022-12-07T13:30:23;0.70;99.70
3648;DHT22;1840;48.892;15.312;2022-12-07T13:32:53;0.50;99.40
3648;DHT22;1840;48.892;15.312;2022-12-07T13:35:29;0.50;99.60
3648;DHT22;1840;48.892;15.312;2022-12-07T13:37:58;0.60;99.60
3648;DHT22;1840;48.892;15.312;2022-12-07T13:40:26;0.40;99.60
3648;DHT22;1840;48.892;15.312;2022-12-07T13:43:00;0.60;99.50
3648;DHT22;1840;48.892;15.312;2022-12-07T13:45:31;0.40;99.50
3648;DHT22;1840;48.892;15.312;2022-12-07T13:48:24;0.50;99.30
3648;DHT22;1840;48.892;15.312;2022-12-07T13:50:55;0.20;99.80
3648;DHT22;1840;48.892;15.312;2022-12-07T13:53:23;0.50;99.80
3648;DHT22;1840;48.892;15.312;2022-12-07T13:55:54;0.80;99.60
3648;DHT22;1840;48.892;15.312;2022-12-07T13:58:24;0.80;99.40
3648;DHT22;1840;48.892;15.312;2022-12-07T14:00:53;0.60;99.00
3648;DHT22;1840;48.892;15.312;2022-12-07T14:03:30;0.50;99.20
3648;DHT22;1840;48.892;15.312;2022-12-07T14:06:24;0.70;99.20
3648;DHT22;1840;48.892;15.312;2022-12-07T14:09:07;0.80;99.00
3648;DHT22;1840;48.892;15.312;2022-12-07T14:11:35;0.60;99.70
3648;DHT22;1840;48.892;15.312;2022-12-07T14:14:10;0.70;99.10
3648;DHT22;1840;48.892;15.312;2022-12-07T14:16:41;0.50;99.20
3648;DHT22;1840;48.892;15.312;2022-12-07T14:19:44;0.50;99.20
3648;DHT22;1840;48.892;15.312;2022-12-07T14:22:24;0.50;99.30
3648;DHT22;1840;48.892;15.312;2022-12-07T14:24:59;0.60;99.00
3648;DHT22;1840;48.892;15.312;2022-12-07T14:27:33;0.60;99.30
3648;DHT22;1840;48.892;15.312;2022-12-07T14:30:06;0.70;98.90
3648;DHT22;1840;48.892;15.312;2022-12-07T14:32:36;0.70;99.00
3648;DHT22;1840;48.892;15.312;2022-12-07T14:35:10;0.70;99.00
3648;DHT22;1840;48.892;15.312;2022-12-07T14:37:40;0.70;99.20
3648;DHT22;1840;48.892;15.312;2022-12-07T14:40:13;0.50;98.90
3648;DHT22;1840;48.892;15.312;2022-12-07T14:42:46;0.50;99.50
3648;DHT22;1840;48.892;15.312;2022-12-07T14:45:22;0.70;99.30
3648;DHT22;1840;48.892;15.312;2022-12-07T14:47:51;0.40;99.00
3648;DHT22;1840;48.892;15.312;2022-12-07T14:50:42;0.20;99.50
3648;DHT22;1840;48.892;15.312;2022-12-07T14:53:34;0.20;99.30
3648;DHT22;1840;48.892;15.312;2022-12-07T14:56:03;0.20;99.20
3648;DHT22;1840;48.892;15.312;2022-12-07T14:58:34;0.40;99.30
3648;DHT22;1840;48.892;15.312;2022-12-07T15:01:04;0.50;98.80
3648;DHT22;1840;48.892;15.312;2022-12-07T15:03:32;0.50;99.10
3648;DHT22;1840;48.892;15.312;2022-12-07T15:06:01;0.30;98.80
3648;DHT22;1840;48.892;15.312;2022-12-07T15:08:31;0.30;99.10
3648;DHT22;1840;48.892;15.312;2022-12-07T15:10:59;0.40;99.10
3648;DHT22;1840;48.892;15.312;2022-12-07T15:13:27;0.20;99.10
3648;DHT22;1840;48.892;15.312;2022-12-07T15:16:18;0.00;99.00
3648;DHT22;1840;48.892;15.312;2022-12-07T15:18:49;0.00;99.40
3648;DHT22;1840;48.892;15.312;2022-12-07T15:21:38;0.10;99.10
3648;DHT22;1840;48.892;15.312;2022-12-07T15:24:07;-0.20;99.30
3648;DHT22;1840;48.892;15.312;2022-12-07T15:26:35;0.00;99.40
3648;DHT22;1840;48.892;15.312;2022-12-07T15:29:04;0.10;99.30
3648;DHT22;1840;48.892;15.312;2022-12-07T15:31:34;0.20;99.10
3648;DHT22;1840;48.892;15.312;2022-12-07T15:34:23;0.30;99.20
3648;DHT22;1840;48.892;15.312;2022-12-07T15:36:51;0.20;99.10
3648;DHT22;1840;48.892;15.312;2022-12-07T15:39:19;0.00;99.30
3648;DHT22;1840;48.892;15.312;2022-12-07T15:41:48;0.10;99.40
3648;DHT22;1840;48.892;15.312;2022-12-07T15:44:18;0.30;99.10
3648;DHT22;1840;48.892;15.312;2022-12-07T15:47:05;0.20;99.00
3648;DHT22;1840;48.892;15.312;2022-12-07T15:49:33;0.20;99.30
3648;DHT22;1840;48.892;15.312;2022-12-07T15:52:01;0.10;99.30
3648;DHT22;1840;48.892;15.312;2022-12-07T15:54:30;0.00;98.80
3648;DHT22;1840;48.892;15.312;2022-12-07T15:56:59;0.10;99.00
3648;DHT22;1840;48.892;15.312;2022-12-07T15:59:30;0.10;99.10
3648;DHT22;1840;48.892;15.312;2022-12-07T16:01:58;0.30;99.20
3648;DHT22;1840;48.892;15.312;2022-12-07T16:04:28;0.20;98.80
3648;DHT22;1840;48.892;15.312;2022-12-07T16:06:57;0.20;99.10
3648;DHT22;1840;48.892;15.312;2022-12-07T16:09:25;0.00;98.70
3648;DHT22;1840;48.892;15.312;2022-12-07T16:11:53;0.20;98.90
3648;DHT22;1840;48.892;15.312;2022-12-07T16:14:21;0.10;99.20
3648;DHT22;1840;48.892;15.312;2022-12-07T16:16:49;0.10;98.80
3648;DHT22;1840;48.892;15.312;2022-12-07T16:19:17;0.10;99.10
3648;DHT22;1840;48.892;15.312;2022-12-07T16:21:47;0.20;99.00
3648;DHT22;1840;48.892;15.312;2022-12-07T16:24:15;0.10;99.10
3648;DHT22;1840;48.892;15.312;2022-12-07T16:26:44;-0.10;98.90
3648;DHT22;1840;48.892;15.312;2022-12-07T16:29:17;-0.10;99.30
3648;DHT22;1840;48.892;15.312;2022-12-07T16:31:46;0.00;99.20
3648;DHT22;1840;48.892;15.312;2022-12-07T16:34:15;0.20;98.90
3648;DHT22;1840;48.892;15.312;2022-12-07T16:36:43;0.20;98.80
3648;DHT22;1840;48.892;15.312;2022-12-07T16:39:34;0.00;99.20
3648;DHT22;1840;48.892;15.312;2022-12-07T16:42:04;-0.10;99.30
3648;DHT22;1840;48.892;15.312;2022-12-07T16:44:32;-0.10;99.40
3648;DHT22;1840;48.892;15.312;2022-12-07T16:47:00;0.00;99.40
3648;DHT22;1840;48.892;15.312;2022-12-07T16:49:28;0.10;99.40
3648;DHT22;1840;48.892;15.312;2022-12-07T16:51:56;0.10;99.00
3648;DHT22;1840;48.892;15.312;2022-12-07T16:54:49;-0.10;99.30